Terminal Aerodrome Forecast
Issued by NWS Memphis, TN

Home | Current Version | Previous Version | Text Only | Print | Product List | Glossary On
Versions: 1 2 3 4 5 6 7 8 9 10 11 12 13 14
662
FTUS44 KMEG 200520
TAFJBR
TAF
KJBR 200520Z 2006/2106 20011KT P6SM BKN035
     FM201000 20006KT P6SM BKN025 OVC035
     FM201700 18009KT P6SM VCSH OVC015=

USA.gov is the U.S. government's official web portal to all federal, state and local government web resources and services.